Wenham, MA (01984)

11:59 AM EST on January 19, 2017 (GMT -0500)
Wenham Country Club | | Change Station

Elev 92 ft 42.60 °N, 70.89 °W | Updated 7 seconds ago

Scattered Clouds
Scattered Clouds
38.7 °F
Feels Like 35 °F
N
5.6
Wind Variable Wind from SW
Gusts 7.4 mph

Today
High -- | Low -- °F
--% Chance of Precip.
Yesterday
High -- | Low -- °F
Precip. -- in
Pressure 29.96 in
Visibility 10.0 miles
Clouds Scattered Clouds 900 ft
Windchill 35 °F
Dew Point 35 °F
Humidity 86%
Rainfall 0.00 in
Snow Depth Not available.
7:08 AM 4:40 PM
Waning Gibbous, 52% visible
METAR KBVY 191653Z 27006KT 10SM SCT009 04/02 A2996 RMK AO2 SLP144 T00440022
Pressure 29.96 in
Visibility 10.0 miles
Clouds Scattered Clouds 900 ft
Windchill 35 °F
Dew Point 35 °F
Humidity 86%
Rainfall 0.00 in
Snow Depth Not available.
7:08 AM 4:40 PM
Waning Gibbous, 52% visible
METAR KBVY 191653Z 27006KT 10SM SCT009 04/02 A2996 RMK AO2 SLP144 T00440022

Get Your Daily Forecast Email!

Thanks for signing up!

Be on the lookout for a verification email in your inbox.

You'll start receiving the daily forecast at 8 AM.

×

10-Day Weather Forecast

Almanac

Astronomy

Jan. 19, 2017 Rise Set
Actual Time
Civil Twilight
Nautical Twilight
Astronomical Twilight
Moon
Length of Visible Light
Length of Day
Tomorrow will be .
, % of the Moon is Illuminated

Today's Extremes

State Highs State Lows

Community

WunderPhotos

Upload Photos

1,962,540 photos uploaded!

WunderBlog® & News

Nearby

Air Quality

  Air Quality AQ Index Pollutant
Not available.

Snow Depth

Station Depth Elevation

Earthquake Activity

City Distance Mag. Time & Date
Minimum magnitude displayed is 2.5.

Coastal Water Temperatures

Place Temperature

Stations

Nearby Weather Stations

Station Location Temp. Windchill Dew Point Humidity Wind Precip. Elev Updated Type
                   

Watches & Warnings

Small Craft for Hazardous Seas Advisory
Issued: 10:04 AM EST Jan. 19, 2017 – National Weather Service

... Small Craft Advisory for hazardous seas remains in effect
until 10 am EST Friday...

* seas... 3 to 5 feet.

Precautionary/preparedness actions...

A Small Craft Advisory for hazardous seas means that waves are
expected to be hazardous to small craft. Mariners should avoid
shoaling areas. Long period swell can sharpen into large breaking
waves in shoaling areas. It is not unusual for waves to break
much farther from shoaling areas than is normally experienced.
Remember... breaking waves can easily capsize even larger vessels.